sensor_id;sensor_type;location;lat;lon;timestamp;P1;durP1;ratioP1;P2;durP2;ratioP2
1649;SDS011;822;53.670;8.676;2022-11-15T00:00:05;16.47;;;7.37;;
1649;SDS011;822;53.670;8.676;2022-11-15T00:02:32;14.40;;;7.63;;
1649;SDS011;822;53.670;8.676;2022-11-15T00:04:58;10.00;;;6.93;;
1649;SDS011;822;53.670;8.676;2022-11-15T00:07:25;11.90;;;7.40;;
1649;SDS011;822;53.670;8.676;2022-11-15T00:09:51;11.40;;;8.60;;
1649;SDS011;822;53.670;8.676;2022-11-15T00:12:18;10.50;;;6.93;;
1649;SDS011;822;53.670;8.676;2022-11-15T00:14:47;12.90;;;7.87;;
1649;SDS011;822;53.670;8.676;2022-11-15T00:17:13;11.60;;;6.90;;
1649;SDS011;822;53.670;8.676;2022-11-15T00:19:40;11.77;;;7.37;;
1649;SDS011;822;53.670;8.676;2022-11-15T00:22:07;8.47;;;7.13;;
1649;SDS011;822;53.670;8.676;2022-11-15T00:24:34;8.03;;;5.80;;
1649;SDS011;822;53.670;8.676;2022-11-15T00:27:01;12.27;;;7.43;;
1649;SDS011;822;53.670;8.676;2022-11-15T00:29:27;14.90;;;7.80;;
1649;SDS011;822;53.670;8.676;2022-11-15T00:31:56;11.00;;;7.93;;
1649;SDS011;822;53.670;8.676;2022-11-15T00:34:22;17.20;;;8.93;;
1649;SDS011;822;53.670;8.676;2022-11-15T00:36:49;10.00;;;6.93;;
1649;SDS011;822;53.670;8.676;2022-11-15T00:39:16;11.80;;;7.53;;
1649;SDS011;822;53.670;8.676;2022-11-15T00:41:43;10.47;;;7.03;;
1649;SDS011;822;53.670;8.676;2022-11-15T00:44:10;9.77;;;7.37;;
1649;SDS011;822;53.670;8.676;2022-11-15T00:46:36;11.30;;;8.03;;
1649;SDS011;822;53.670;8.676;2022-11-15T00:49:05;16.00;;;8.97;;
1649;SDS011;822;53.670;8.676;2022-11-15T00:51:31;11.87;;;7.77;;
1649;SDS011;822;53.670;8.676;2022-11-15T00:53:58;10.60;;;7.47;;
1649;SDS011;822;53.670;8.676;2022-11-15T00:56:25;10.17;;;7.00;;
1649;SDS011;822;53.670;8.676;2022-11-15T00:58:52;10.10;;;5.63;;
1649;SDS011;822;53.670;8.676;2022-11-15T01:01:19;11.10;;;6.97;;
1649;SDS011;822;53.670;8.676;2022-11-15T01:03:46;12.57;;;6.77;;
1649;SDS011;822;53.670;8.676;2022-11-15T01:06:14;11.70;;;8.47;;
1649;SDS011;822;53.670;8.676;2022-11-15T01:08:41;10.27;;;6.60;;
1649;SDS011;822;53.670;8.676;2022-11-15T01:11:09;10.67;;;6.27;;
1649;SDS011;822;53.670;8.676;2022-11-15T01:13:37;11.60;;;6.33;;
1649;SDS011;822;53.670;8.676;2022-11-15T01:16:08;12.33;;;7.50;;
1649;SDS011;822;53.670;8.676;2022-11-15T01:18:36;11.27;;;7.37;;
1649;SDS011;822;53.670;8.676;2022-11-15T01:21:07;8.07;;;5.47;;
1649;SDS011;822;53.670;8.676;2022-11-15T01:23:35;9.43;;;6.93;;
1649;SDS011;822;53.670;8.676;2022-11-15T01:26:03;8.77;;;6.90;;
1649;SDS011;822;53.670;8.676;2022-11-15T01:28:31;9.33;;;6.20;;
1649;SDS011;822;53.670;8.676;2022-11-15T01:30:59;12.80;;;7.80;;
1649;SDS011;822;53.670;8.676;2022-11-15T01:33:25;7.60;;;5.40;;
1649;SDS011;822;53.670;8.676;2022-11-15T01:35:52;6.67;;;5.97;;
1649;SDS011;822;53.670;8.676;2022-11-15T01:38:19;12.80;;;7.97;;
1649;SDS011;822;53.670;8.676;2022-11-15T01:40:47;11.07;;;5.83;;
1649;SDS011;822;53.670;8.676;2022-11-15T01:43:22;12.20;;;7.67;;
1649;SDS011;822;53.670;8.676;2022-11-15T01:45:50;9.90;;;5.80;;
1649;SDS011;822;53.670;8.676;2022-11-15T01:48:19;8.30;;;5.60;;
1649;SDS011;822;53.670;8.676;2022-11-15T01:50:47;10.67;;;6.60;;
1649;SDS011;822;53.670;8.676;2022-11-15T01:53:15;10.27;;;5.10;;
1649;SDS011;822;53.670;8.676;2022-11-15T01:55:42;8.60;;;6.90;;
1649;SDS011;822;53.670;8.676;2022-11-15T01:58:10;13.10;;;7.10;;
1649;SDS011;822;53.670;8.676;2022-11-15T02:00:37;10.97;;;6.57;;
1649;SDS011;822;53.670;8.676;2022-11-15T02:03:04;8.10;;;5.50;;
1649;SDS011;822;53.670;8.676;2022-11-15T02:05:31;7.80;;;5.67;;
1649;SDS011;822;53.670;8.676;2022-11-15T02:07:59;14.90;;;7.57;;
1649;SDS011;822;53.670;8.676;2022-11-15T02:10:27;8.77;;;5.07;;
1649;SDS011;822;53.670;8.676;2022-11-15T02:12:53;12.50;;;6.97;;
1649;SDS011;822;53.670;8.676;2022-11-15T02:15:23;10.20;;;6.23;;
1649;SDS011;822;53.670;8.676;2022-11-15T02:17:57;7.47;;;6.27;;
1649;SDS011;822;53.670;8.676;2022-11-15T02:25:56;6.93;;;5.00;;
1649;SDS011;822;53.670;8.676;2022-11-15T02:28:29;9.60;;;6.90;;
1649;SDS011;822;53.670;8.676;2022-11-15T02:31:02;8.43;;;5.57;;
1649;SDS011;822;53.670;8.676;2022-11-15T02:33:33;8.10;;;5.37;;
1649;SDS011;822;53.670;8.676;2022-11-15T02:36:02;9.03;;;6.30;;
1649;SDS011;822;53.670;8.676;2022-11-15T02:38:34;9.30;;;6.63;;
1649;SDS011;822;53.670;8.676;2022-11-15T02:41:06;12.63;;;7.53;;
1649;SDS011;822;53.670;8.676;2022-11-15T02:43:36;11.57;;;6.10;;
1649;SDS011;822;53.670;8.676;2022-11-15T02:46:26;9.30;;;5.70;;
1649;SDS011;822;53.670;8.676;2022-11-15T02:49:10;9.00;;;6.70;;
1649;SDS011;822;53.670;8.676;2022-11-15T02:51:38;7.83;;;6.30;;
1649;SDS011;822;53.670;8.676;2022-11-15T02:54:04;9.47;;;7.20;;
1649;SDS011;822;53.670;8.676;2022-11-15T02:56:31;10.07;;;7.27;;
1649;SDS011;822;53.670;8.676;2022-11-15T02:59:00;12.37;;;7.30;;
1649;SDS011;822;53.670;8.676;2022-11-15T03:01:37;7.27;;;5.50;;
1649;SDS011;822;53.670;8.676;2022-11-15T03:04:08;5.90;;;5.30;;
1649;SDS011;822;53.670;8.676;2022-11-15T03:06:38;8.20;;;5.07;;
1649;SDS011;822;53.670;8.676;2022-11-15T03:09:09;12.77;;;6.33;;
1649;SDS011;822;53.670;8.676;2022-11-15T03:11:37;5.93;;;4.60;;
1649;SDS011;822;53.670;8.676;2022-11-15T03:14:09;8.50;;;5.30;;
1649;SDS011;822;53.670;8.676;2022-11-15T03:16:40;8.07;;;6.03;;
1649;SDS011;822;53.670;8.676;2022-11-15T03:19:11;9.90;;;6.80;;
1649;SDS011;822;53.670;8.676;2022-11-15T03:21:40;6.03;;;5.43;;
1649;SDS011;822;53.670;8.676;2022-11-15T03:24:08;8.20;;;5.20;;
1649;SDS011;822;53.670;8.676;2022-11-15T03:26:35;6.87;;;5.07;;
1649;SDS011;822;53.670;8.676;2022-11-15T03:29:04;8.73;;;6.57;;
1649;SDS011;822;53.670;8.676;2022-11-15T03:31:38;7.60;;;5.27;;
1649;SDS011;822;53.670;8.676;2022-11-15T03:34:16;6.00;;;4.50;;
1649;SDS011;822;53.670;8.676;2022-11-15T03:36:47;7.70;;;5.73;;
1649;SDS011;822;53.670;8.676;2022-11-15T03:39:14;7.90;;;4.20;;
1649;SDS011;822;53.670;8.676;2022-11-15T03:41:42;8.53;;;5.87;;
1649;SDS011;822;53.670;8.676;2022-11-15T03:44:14;8.17;;;5.60;;
1649;SDS011;822;53.670;8.676;2022-11-15T03:46:45;7.90;;;6.30;;
1649;SDS011;822;53.670;8.676;2022-11-15T03:49:15;5.83;;;5.20;;
1649;SDS011;822;53.670;8.676;2022-11-15T03:51:44;6.60;;;5.13;;
1649;SDS011;822;53.670;8.676;2022-11-15T03:54:11;8.20;;;6.60;;
1649;SDS011;822;53.670;8.676;2022-11-15T03:56:38;6.67;;;4.63;;
1649;SDS011;822;53.670;8.676;2022-11-15T03:59:05;8.23;;;4.80;;
1649;SDS011;822;53.670;8.676;2022-11-15T04:01:32;7.53;;;4.73;;
1649;SDS011;822;53.670;8.676;2022-11-15T04:04:00;8.60;;;6.20;;
1649;SDS011;822;53.670;8.676;2022-11-15T04:06:27;10.70;;;7.73;;
1649;SDS011;822;53.670;8.676;2022-11-15T04:08:54;6.67;;;4.60;;
1649;SDS011;822;53.670;8.676;2022-11-15T04:11:21;7.90;;;5.80;;
1649;SDS011;822;53.670;8.676;2022-11-15T04:13:48;10.30;;;7.33;;
1649;SDS011;822;53.670;8.676;2022-11-15T04:16:15;12.33;;;7.60;;
1649;SDS011;822;53.670;8.676;2022-11-15T04:18:41;8.40;;;6.60;;
1649;SDS011;822;53.670;8.676;2022-11-15T04:21:09;6.90;;;5.17;;
1649;SDS011;822;53.670;8.676;2022-11-15T04:23:54;6.63;;;5.33;;
1649;SDS011;822;53.670;8.676;2022-11-15T04:26:39;8.60;;;5.93;;
1649;SDS011;822;53.670;8.676;2022-11-15T04:29:05;9.57;;;5.73;;
1649;SDS011;822;53.670;8.676;2022-11-15T04:31:49;7.03;;;5.90;;
1649;SDS011;822;53.670;8.676;2022-11-15T04:34:16;8.47;;;6.10;;
1649;SDS011;822;53.670;8.676;2022-11-15T04:36:44;8.97;;;6.10;;
1649;SDS011;822;53.670;8.676;2022-11-15T04:39:28;7.60;;;6.33;;
1649;SDS011;822;53.670;8.676;2022-11-15T04:41:55;7.40;;;6.33;;
1649;SDS011;822;53.670;8.676;2022-11-15T04:44:22;9.53;;;6.60;;
1649;SDS011;822;53.670;8.676;2022-11-15T04:46:49;11.80;;;6.90;;
1649;SDS011;822;53.670;8.676;2022-11-15T04:49:16;9.40;;;6.20;;
1649;SDS011;822;53.670;8.676;2022-11-15T04:51:42;13.33;;;7.63;;
1649;SDS011;822;53.670;8.676;2022-11-15T04:54:11;9.97;;;7.13;;
1649;SDS011;822;53.670;8.676;2022-11-15T04:56:37;10.10;;;7.80;;
1649;SDS011;822;53.670;8.676;2022-11-15T04:59:04;13.40;;;7.10;;
1649;SDS011;822;53.670;8.676;2022-11-15T05:01:31;11.30;;;6.57;;
1649;SDS011;822;53.670;8.676;2022-11-15T05:03:57;10.57;;;6.73;;
1649;SDS011;822;53.670;8.676;2022-11-15T05:06:41;10.30;;;7.90;;
1649;SDS011;822;53.670;8.676;2022-11-15T05:09:08;9.83;;;7.20;;
1649;SDS011;822;53.670;8.676;2022-11-15T05:11:37;7.30;;;5.63;;
1649;SDS011;822;53.670;8.676;2022-11-15T05:14:03;9.83;;;6.13;;
1649;SDS011;822;53.670;8.676;2022-11-15T05:16:30;12.07;;;6.80;;
1649;SDS011;822;53.670;8.676;2022-11-15T05:18:57;11.60;;;6.37;;
1649;SDS011;822;53.670;8.676;2022-11-15T05:21:24;13.50;;;6.50;;
1649;SDS011;822;53.670;8.676;2022-11-15T05:23:51;9.30;;;6.03;;
1649;SDS011;822;53.670;8.676;2022-11-15T05:26:17;9.30;;;7.00;;
1649;SDS011;822;53.670;8.676;2022-11-15T05:28:46;9.93;;;6.67;;
1649;SDS011;822;53.670;8.676;2022-11-15T05:31:13;8.73;;;7.30;;
1649;SDS011;822;53.670;8.676;2022-11-15T05:33:41;9.63;;;7.10;;
1649;SDS011;822;53.670;8.676;2022-11-15T05:36:09;8.70;;;6.40;;
1649;SDS011;822;53.670;8.676;2022-11-15T05:38:39;7.97;;;5.87;;
1649;SDS011;822;53.670;8.676;2022-11-15T05:41:06;12.30;;;7.90;;
1649;SDS011;822;53.670;8.676;2022-11-15T05:43:34;7.70;;;5.50;;
1649;SDS011;822;53.670;8.676;2022-11-15T05:46:03;10.97;;;6.73;;
1649;SDS011;822;53.670;8.676;2022-11-15T05:48:30;9.37;;;7.37;;
1649;SDS011;822;53.670;8.676;2022-11-15T05:50:58;15.03;;;6.87;;
1649;SDS011;822;53.670;8.676;2022-11-15T05:53:25;10.00;;;6.97;;
1649;SDS011;822;53.670;8.676;2022-11-15T05:55:52;9.07;;;6.70;;
1649;SDS011;822;53.670;8.676;2022-11-15T05:58:19;10.07;;;6.00;;
1649;SDS011;822;53.670;8.676;2022-11-15T06:00:46;10.03;;;6.77;;
1649;SDS011;822;53.670;8.676;2022-11-15T06:03:15;7.93;;;5.27;;
1649;SDS011;822;53.670;8.676;2022-11-15T06:05:42;10.43;;;6.13;;
1649;SDS011;822;53.670;8.676;2022-11-15T06:08:08;7.23;;;6.00;;
1649;SDS011;822;53.670;8.676;2022-11-15T06:10:35;6.03;;;5.40;;
1649;SDS011;822;53.670;8.676;2022-11-15T06:13:03;14.83;;;6.30;;
1649;SDS011;822;53.670;8.676;2022-11-15T06:15:31;9.60;;;6.90;;
1649;SDS011;822;53.670;8.676;2022-11-15T06:17:58;10.00;;;7.90;;
1649;SDS011;822;53.670;8.676;2022-11-15T06:20:27;12.40;;;6.17;;
1649;SDS011;822;53.670;8.676;2022-11-15T06:22:58;8.53;;;6.07;;
1649;SDS011;822;53.670;8.676;2022-11-15T06:25:25;7.97;;;5.93;;
1649;SDS011;822;53.670;8.676;2022-11-15T06:27:53;6.40;;;5.20;;
1649;SDS011;822;53.670;8.676;2022-11-15T06:30:20;11.57;;;6.13;;
1649;SDS011;822;53.670;8.676;2022-11-15T06:32:47;7.93;;;6.30;;
1649;SDS011;822;53.670;8.676;2022-11-15T06:35:14;8.77;;;5.17;;
1649;SDS011;822;53.670;8.676;2022-11-15T06:37:42;6.90;;;6.10;;
1649;SDS011;822;53.670;8.676;2022-11-15T06:40:10;6.53;;;5.30;;
1649;SDS011;822;53.670;8.676;2022-11-15T06:42:37;7.43;;;5.60;;
1649;SDS011;822;53.670;8.676;2022-11-15T06:45:04;8.43;;;6.30;;
1649;SDS011;822;53.670;8.676;2022-11-15T06:47:32;11.00;;;5.67;;
1649;SDS011;822;53.670;8.676;2022-11-15T06:49:59;8.83;;;6.20;;
1649;SDS011;822;53.670;8.676;2022-11-15T06:52:25;9.57;;;6.40;;
1649;SDS011;822;53.670;8.676;2022-11-15T06:54:58;7.50;;;5.40;;
1649;SDS011;822;53.670;8.676;2022-11-15T06:57:25;7.87;;;6.80;;
1649;SDS011;822;53.670;8.676;2022-11-15T06:59:53;8.60;;;6.67;;
1649;SDS011;822;53.670;8.676;2022-11-15T07:02:19;9.00;;;5.20;;
1649;SDS011;822;53.670;8.676;2022-11-15T07:04:46;7.20;;;6.13;;
1649;SDS011;822;53.670;8.676;2022-11-15T07:07:13;6.93;;;4.90;;
1649;SDS011;822;53.670;8.676;2022-11-15T07:09:40;9.33;;;5.90;;
1649;SDS011;822;53.670;8.676;2022-11-15T07:12:08;6.50;;;4.67;;
1649;SDS011;822;53.670;8.676;2022-11-15T07:14:35;7.30;;;5.70;;
1649;SDS011;822;53.670;8.676;2022-11-15T07:17:03;8.10;;;5.43;;
1649;SDS011;822;53.670;8.676;2022-11-15T07:19:29;5.07;;;4.57;;
1649;SDS011;822;53.670;8.676;2022-11-15T07:21:56;10.00;;;7.43;;
1649;SDS011;822;53.670;8.676;2022-11-15T07:24:23;9.57;;;6.23;;
1649;SDS011;822;53.670;8.676;2022-11-15T07:26:50;9.03;;;5.70;;
1649;SDS011;822;53.670;8.676;2022-11-15T07:29:18;5.57;;;5.07;;
1649;SDS011;822;53.670;8.676;2022-11-15T07:31:45;9.33;;;5.43;;
1649;SDS011;822;53.670;8.676;2022-11-15T07:34:11;6.80;;;6.00;;
1649;SDS011;822;53.670;8.676;2022-11-15T07:36:38;5.90;;;4.93;;
1649;SDS011;822;53.670;8.676;2022-11-15T07:39:05;6.60;;;5.60;;
1649;SDS011;822;53.670;8.676;2022-11-15T07:41:32;8.53;;;5.23;;
1649;SDS011;822;53.670;8.676;2022-11-15T07:44:00;6.40;;;5.53;;
1649;SDS011;822;53.670;8.676;2022-11-15T07:46:28;5.40;;;4.90;;
1649;SDS011;822;53.670;8.676;2022-11-15T07:48:55;5.43;;;4.93;;
1649;SDS011;822;53.670;8.676;2022-11-15T07:51:22;9.13;;;5.77;;
1649;SDS011;822;53.670;8.676;2022-11-15T07:53:49;7.30;;;5.17;;
1649;SDS011;822;53.670;8.676;2022-11-15T07:56:15;6.90;;;5.10;;
1649;SDS011;822;53.670;8.676;2022-11-15T07:58:42;5.20;;;4.70;;
1649;SDS011;822;53.670;8.676;2022-11-15T08:01:11;8.70;;;5.87;;
1649;SDS011;822;53.670;8.676;2022-11-15T08:03:40;5.87;;;5.13;;
1649;SDS011;822;53.670;8.676;2022-11-15T08:06:06;6.03;;;5.43;;
1649;SDS011;822;53.670;8.676;2022-11-15T08:08:33;7.53;;;5.37;;
1649;SDS011;822;53.670;8.676;2022-11-15T08:11:00;8.70;;;6.27;;
1649;SDS011;822;53.670;8.676;2022-11-15T08:13:27;5.73;;;5.17;;
1649;SDS011;822;53.670;8.676;2022-11-15T08:15:57;7.67;;;5.50;;
1649;SDS011;822;53.670;8.676;2022-11-15T08:18:25;5.97;;;4.40;;
1649;SDS011;822;53.670;8.676;2022-11-15T08:20:57;6.23;;;5.47;;
1649;SDS011;822;53.670;8.676;2022-11-15T08:23:25;7.10;;;4.97;;
1649;SDS011;822;53.670;8.676;2022-11-15T08:25:52;7.03;;;5.43;;
1649;SDS011;822;53.670;8.676;2022-11-15T08:28:19;6.87;;;5.60;;
1649;SDS011;822;53.670;8.676;2022-11-15T08:30:46;8.00;;;5.77;;
1649;SDS011;822;53.670;8.676;2022-11-15T08:33:13;5.43;;;4.93;;
1649;SDS011;822;53.670;8.676;2022-11-15T08:35:40;5.43;;;4.50;;
1649;SDS011;822;53.670;8.676;2022-11-15T08:38:09;5.70;;;4.67;;
1649;SDS011;822;53.670;8.676;2022-11-15T08:40:36;5.40;;;4.60;;
1649;SDS011;822;53.670;8.676;2022-11-15T08:43:03;5.07;;;4.57;;
1649;SDS011;822;53.670;8.676;2022-11-15T08:45:30;5.87;;;4.20;;
1649;SDS011;822;53.670;8.676;2022-11-15T08:47:57;5.20;;;4.70;;
1649;SDS011;822;53.670;8.676;2022-11-15T08:50:24;4.90;;;4.50;;
1649;SDS011;822;53.670;8.676;2022-11-15T08:52:51;5.93;;;5.00;;
1649;SDS011;822;53.670;8.676;2022-11-15T08:55:19;5.13;;;4.73;;
1649;SDS011;822;53.670;8.676;2022-11-15T08:57:45;5.07;;;4.53;;
1649;SDS011;822;53.670;8.676;2022-11-15T09:00:16;4.23;;;3.83;;
1649;SDS011;822;53.670;8.676;2022-11-15T09:02:44;7.13;;;5.60;;
1649;SDS011;822;53.670;8.676;2022-11-15T09:05:11;6.30;;;4.43;;
1649;SDS011;822;53.670;8.676;2022-11-15T09:07:38;5.33;;;4.40;;
1649;SDS011;822;53.670;8.676;2022-11-15T09:10:05;5.80;;;4.13;;
1649;SDS011;822;53.670;8.676;2022-11-15T09:12:34;5.50;;;5.00;;
1649;SDS011;822;53.670;8.676;2022-11-15T09:15:00;6.03;;;5.10;;
1649;SDS011;822;53.670;8.676;2022-11-15T09:17:27;4.93;;;4.37;;
1649;SDS011;822;53.670;8.676;2022-11-15T09:19:54;5.60;;;4.90;;
1649;SDS011;822;53.670;8.676;2022-11-15T09:22:21;6.27;;;5.50;;
1649;SDS011;822;53.670;8.676;2022-11-15T09:24:48;4.80;;;4.30;;
1649;SDS011;822;53.670;8.676;2022-11-15T09:27:15;6.17;;;5.47;;
1649;SDS011;822;53.670;8.676;2022-11-15T09:29:43;5.70;;;4.70;;
1649;SDS011;822;53.670;8.676;2022-11-15T09:32:10;5.30;;;4.63;;
1649;SDS011;822;53.670;8.676;2022-11-15T09:34:37;6.20;;;5.13;;
1649;SDS011;822;53.670;8.676;2022-11-15T09:37:03;5.93;;;5.00;;
1649;SDS011;822;53.670;8.676;2022-11-15T09:39:31;4.07;;;3.77;;
1649;SDS011;822;53.670;8.676;2022-11-15T09:42:07;3.77;;;3.47;;
1649;SDS011;822;53.670;8.676;2022-11-15T09:44:56;5.70;;;4.07;;
1649;SDS011;822;53.670;8.676;2022-11-15T09:47:37;6.20;;;4.67;;
1649;SDS011;822;53.670;8.676;2022-11-15T09:50:11;5.33;;;4.40;;
1649;SDS011;822;53.670;8.676;2022-11-15T09:52:41;4.60;;;4.20;;
1649;SDS011;822;53.670;8.676;2022-11-15T09:55:10;5.10;;;4.60;;
1649;SDS011;822;53.670;8.676;2022-11-15T09:57:41;4.67;;;3.60;;
1649;SDS011;822;53.670;8.676;2022-11-15T10:00:15;4.67;;;4.27;;
1649;SDS011;822;53.670;8.676;2022-11-15T10:02:49;4.33;;;3.93;;
1649;SDS011;822;53.670;8.676;2022-11-15T10:05:37;5.00;;;4.50;;
1649;SDS011;822;53.670;8.676;2022-11-15T10:11:00;6.80;;;4.40;;
1649;SDS011;822;53.670;8.676;2022-11-15T10:13:29;5.30;;;4.80;;
1649;SDS011;822;53.670;8.676;2022-11-15T10:16:00;4.40;;;4.10;;
1649;SDS011;822;53.670;8.676;2022-11-15T10:18:34;4.20;;;3.80;;
1649;SDS011;822;53.670;8.676;2022-11-15T10:21:02;4.70;;;3.63;;
1649;SDS011;822;53.670;8.676;2022-11-15T10:23:38;4.57;;;4.13;;
1649;SDS011;822;53.670;8.676;2022-11-15T10:26:07;4.07;;;3.77;;
1649;SDS011;822;53.670;8.676;2022-11-15T10:28:35;4.63;;;4.23;;
1649;SDS011;822;53.670;8.676;2022-11-15T10:31:10;4.57;;;4.13;;
1649;SDS011;822;53.670;8.676;2022-11-15T10:33:47;4.97;;;4.47;;
1649;SDS011;822;53.670;8.676;2022-11-15T10:36:21;3.67;;;3.37;;
1649;SDS011;822;53.670;8.676;2022-11-15T10:38:51;4.80;;;4.40;;
1649;SDS011;822;53.670;8.676;2022-11-15T10:41:20;3.80;;;3.57;;
1649;SDS011;822;53.670;8.676;2022-11-15T10:44:01;3.33;;;2.97;;
1649;SDS011;822;53.670;8.676;2022-11-15T10:46:35;3.33;;;3.03;;
1649;SDS011;822;53.670;8.676;2022-11-15T10:49:11;3.10;;;2.80;;
1649;SDS011;822;53.670;8.676;2022-11-15T10:51:40;2.73;;;2.53;;
1649;SDS011;822;53.670;8.676;2022-11-15T10:54:09;2.53;;;2.33;;
1649;SDS011;822;53.670;8.676;2022-11-15T10:56:37;3.20;;;2.90;;
1649;SDS011;822;53.670;8.676;2022-11-15T10:59:04;2.30;;;2.20;;
1649;SDS011;822;53.670;8.676;2022-11-15T11:01:35;2.90;;;2.60;;
1649;SDS011;822;53.670;8.676;2022-11-15T11:04:12;3.60;;;3.20;;
1649;SDS011;822;53.670;8.676;2022-11-15T11:06:45;2.87;;;2.67;;
1649;SDS011;822;53.670;8.676;2022-11-15T11:09:21;2.30;;;2.20;;
1649;SDS011;822;53.670;8.676;2022-11-15T11:11:50;3.10;;;2.80;;
1649;SDS011;822;53.670;8.676;2022-11-15T11:14:19;2.53;;;2.33;;
1649;SDS011;822;53.670;8.676;2022-11-15T11:16:49;7.90;;;2.40;;
1649;SDS011;822;53.670;8.676;2022-11-15T11:22:17;2.10;;;2.00;;
1649;SDS011;822;53.670;8.676;2022-11-15T11:24:45;2.00;;;1.90;;
1649;SDS011;822;53.670;8.676;2022-11-15T11:27:18;2.63;;;2.43;;
1649;SDS011;822;53.670;8.676;2022-11-15T11:29:52;2.20;;;2.00;;
1649;SDS011;822;53.670;8.676;2022-11-15T11:32:28;2.20;;;2.10;;
1649;SDS011;822;53.670;8.676;2022-11-15T11:35:06;2.03;;;1.93;;
1649;SDS011;822;53.670;8.676;2022-11-15T11:37:37;2.77;;;2.57;;
1649;SDS011;822;53.670;8.676;2022-11-15T11:40:11;2.40;;;2.30;;
1649;SDS011;822;53.670;8.676;2022-11-15T11:42:42;2.80;;;2.60;;
1649;SDS011;822;53.670;8.676;2022-11-15T11:45:15;2.77;;;2.57;;
1649;SDS011;822;53.670;8.676;2022-11-15T11:47:46;2.33;;;2.17;;
1649;SDS011;822;53.670;8.676;2022-11-15T11:50:14;2.47;;;2.27;;
1649;SDS011;822;53.670;8.676;2022-11-15T11:52:43;2.03;;;1.90;;
1649;SDS011;822;53.670;8.676;2022-11-15T11:55:12;2.63;;;2.43;;
1649;SDS011;822;53.670;8.676;2022-11-15T11:57:41;2.57;;;2.20;;
1649;SDS011;822;53.670;8.676;2022-11-15T12:00:13;2.20;;;2.10;;
1649;SDS011;822;53.670;8.676;2022-11-15T12:02:41;2.07;;;1.97;;
1649;SDS011;822;53.670;8.676;2022-11-15T12:05:20;2.23;;;2.13;;
1649;SDS011;822;53.670;8.676;2022-11-15T12:07:49;2.37;;;2.17;;
1649;SDS011;822;53.670;8.676;2022-11-15T12:10:20;2.27;;;2.17;;
1649;SDS011;822;53.670;8.676;2022-11-15T12:12:49;2.40;;;2.10;;
1649;SDS011;822;53.670;8.676;2022-11-15T12:15:17;2.43;;;2.20;;
1649;SDS011;822;53.670;8.676;2022-11-15T12:17:46;2.10;;;1.97;;
1649;SDS011;822;53.670;8.676;2022-11-15T12:20:16;1.53;;;1.43;;
1649;SDS011;822;53.670;8.676;2022-11-15T12:22:45;2.40;;;2.20;;
1649;SDS011;822;53.670;8.676;2022-11-15T12:25:16;2.20;;;2.03;;
1649;SDS011;822;53.670;8.676;2022-11-15T12:27:44;1.70;;;1.60;;
1649;SDS011;822;53.670;8.676;2022-11-15T12:30:15;1.70;;;1.60;;
1649;SDS011;822;53.670;8.676;2022-11-15T12:32:49;1.80;;;1.70;;
1649;SDS011;822;53.670;8.676;2022-11-15T12:35:23;1.90;;;1.80;;
1649;SDS011;822;53.670;8.676;2022-11-15T12:37:52;2.40;;;2.17;;
1649;SDS011;822;53.670;8.676;2022-11-15T12:40:22;2.33;;;2.23;;
1649;SDS011;822;53.670;8.676;2022-11-15T12:43:10;2.20;;;2.07;;
1649;SDS011;822;53.670;8.676;2022-11-15T12:45:53;3.13;;;1.63;;
1649;SDS011;822;53.670;8.676;2022-11-15T12:51:06;2.30;;;2.13;;
1649;SDS011;822;53.670;8.676;2022-11-15T12:53:33;2.20;;;2.00;;
1649;SDS011;822;53.670;8.676;2022-11-15T12:56:17;2.20;;;2.00;;
1649;SDS011;822;53.670;8.676;2022-11-15T12:58:45;1.80;;;1.70;;
1649;SDS011;822;53.670;8.676;2022-11-15T13:04:13;1.57;;;1.47;;
1649;SDS011;822;53.670;8.676;2022-11-15T13:06:50;1.77;;;1.67;;
1649;SDS011;822;53.670;8.676;2022-11-15T13:12:03;2.00;;;1.90;;
1649;SDS011;822;53.670;8.676;2022-11-15T13:14:49;2.60;;;2.40;;
1649;SDS011;822;53.670;8.676;2022-11-15T13:17:26;2.10;;;2.00;;
1649;SDS011;822;53.670;8.676;2022-11-15T13:19:58;1.87;;;1.77;;
1649;SDS011;822;53.670;8.676;2022-11-15T13:22:27;2.60;;;2.40;;
1649;SDS011;822;53.670;8.676;2022-11-15T13:25:15;1.83;;;1.73;;
1649;SDS011;822;53.670;8.676;2022-11-15T13:27:44;1.90;;;1.80;;
1649;SDS011;822;53.670;8.676;2022-11-15T13:30:13;1.93;;;1.73;;
1649;SDS011;822;53.670;8.676;2022-11-15T13:32:40;1.77;;;1.67;;
1649;SDS011;822;53.670;8.676;2022-11-15T13:35:07;2.13;;;2.00;;
1649;SDS011;822;53.670;8.676;2022-11-15T13:37:35;2.03;;;1.83;;
1649;SDS011;822;53.670;8.676;2022-11-15T13:42:47;2.00;;;1.80;;
1649;SDS011;822;53.670;8.676;2022-11-15T13:45:14;1.50;;;1.37;;
1649;SDS011;822;53.670;8.676;2022-11-15T13:47:41;2.17;;;2.07;;
1649;SDS011;822;53.670;8.676;2022-11-15T13:50:10;2.10;;;2.00;;
1649;SDS011;822;53.670;8.676;2022-11-15T13:52:39;1.57;;;1.47;;
1649;SDS011;822;53.670;8.676;2022-11-15T13:55:09;2.00;;;1.90;;
1649;SDS011;822;53.670;8.676;2022-11-15T13:57:37;2.60;;;2.10;;
1649;SDS011;822;53.670;8.676;2022-11-15T14:00:06;2.00;;;1.87;;
1649;SDS011;822;53.670;8.676;2022-11-15T14:02:49;1.70;;;1.60;;
1649;SDS011;822;53.670;8.676;2022-11-15T14:05:19;1.93;;;1.83;;
1649;SDS011;822;53.670;8.676;2022-11-15T14:07:54;2.90;;;2.70;;
1649;SDS011;822;53.670;8.676;2022-11-15T14:10:30;1.90;;;1.73;;
1649;SDS011;822;53.670;8.676;2022-11-15T14:12:57;2.07;;;1.97;;
1649;SDS011;822;53.670;8.676;2022-11-15T14:15:26;1.83;;;1.73;;
1649;SDS011;822;53.670;8.676;2022-11-15T14:17:53;2.00;;;1.90;;
1649;SDS011;822;53.670;8.676;2022-11-15T14:20:26;2.23;;;2.13;;
1649;SDS011;822;53.670;8.676;2022-11-15T14:22:55;1.80;;;1.70;;
1649;SDS011;822;53.670;8.676;2022-11-15T14:25:22;2.40;;;2.00;;
1649;SDS011;822;53.670;8.676;2022-11-15T14:28:12;2.10;;;1.97;;
1649;SDS011;822;53.670;8.676;2022-11-15T14:30:42;1.80;;;1.70;;
1649;SDS011;822;53.670;8.676;2022-11-15T14:33:17;2.03;;;1.93;;
1649;SDS011;822;53.670;8.676;2022-11-15T14:35:44;2.33;;;2.13;;
1649;SDS011;822;53.670;8.676;2022-11-15T14:38:12;2.20;;;2.03;;
1649;SDS011;822;53.670;8.676;2022-11-15T14:40:41;2.03;;;1.67;;
1649;SDS011;822;53.670;8.676;2022-11-15T14:43:09;2.50;;;2.30;;
1649;SDS011;822;53.670;8.676;2022-11-15T14:45:36;2.10;;;2.00;;
1649;SDS011;822;53.670;8.676;2022-11-15T14:48:03;2.73;;;2.53;;
1649;SDS011;822;53.670;8.676;2022-11-15T14:50:29;1.70;;;1.60;;
1649;SDS011;822;53.670;8.676;2022-11-15T14:52:57;2.10;;;1.90;;
1649;SDS011;822;53.670;8.676;2022-11-15T14:55:26;2.20;;;2.10;;
1649;SDS011;822;53.670;8.676;2022-11-15T14:57:53;2.10;;;2.00;;
1649;SDS011;822;53.670;8.676;2022-11-15T15:00:20;2.60;;;2.40;;
1649;SDS011;822;53.670;8.676;2022-11-15T15:02:47;2.07;;;1.87;;
1649;SDS011;822;53.670;8.676;2022-11-15T15:05:15;2.30;;;1.80;;
1649;SDS011;822;53.670;8.676;2022-11-15T15:07:42;2.67;;;2.03;;
1649;SDS011;822;53.670;8.676;2022-11-15T15:10:12;2.10;;;1.80;;
1649;SDS011;822;53.670;8.676;2022-11-15T15:12:40;1.50;;;1.40;;
1649;SDS011;822;53.670;8.676;2022-11-15T15:15:10;2.40;;;2.20;;
1649;SDS011;822;53.670;8.676;2022-11-15T15:17:38;1.87;;;1.77;;
1649;SDS011;822;53.670;8.676;2022-11-15T15:20:05;2.23;;;2.00;;
1649;SDS011;822;53.670;8.676;2022-11-15T15:22:31;2.07;;;1.97;;
1649;SDS011;822;53.670;8.676;2022-11-15T15:24:58;2.60;;;2.40;;
1649;SDS011;822;53.670;8.676;2022-11-15T15:27:25;2.23;;;1.93;;
1649;SDS011;822;53.670;8.676;2022-11-15T15:29:53;2.17;;;2.00;;
1649;SDS011;822;53.670;8.676;2022-11-15T15:32:20;2.00;;;1.90;;
1649;SDS011;822;53.670;8.676;2022-11-15T15:34:47;2.20;;;2.00;;
1649;SDS011;822;53.670;8.676;2022-11-15T15:37:21;1.80;;;1.70;;
1649;SDS011;822;53.670;8.676;2022-11-15T15:39:49;2.10;;;2.00;;
1649;SDS011;822;53.670;8.676;2022-11-15T15:42:17;2.30;;;2.10;;
1649;SDS011;822;53.670;8.676;2022-11-15T15:44:44;1.83;;;1.73;;
1649;SDS011;822;53.670;8.676;2022-11-15T15:47:12;1.63;;;1.53;;
1649;SDS011;822;53.670;8.676;2022-11-15T15:49:40;2.20;;;2.00;;
1649;SDS011;822;53.670;8.676;2022-11-15T15:52:07;2.23;;;2.10;;
1649;SDS011;822;53.670;8.676;2022-11-15T15:54:34;1.60;;;1.50;;
1649;SDS011;822;53.670;8.676;2022-11-15T15:57:01;2.47;;;2.27;;
1649;SDS011;822;53.670;8.676;2022-11-15T15:59:28;1.80;;;1.70;;
1649;SDS011;822;53.670;8.676;2022-11-15T16:01:55;2.57;;;2.37;;